createdAt,value
2019-05-12T00:01:10.578Z,9.00
2019-05-12T00:06:12.101Z,8.90
2019-05-12T00:11:13.588Z,9.00
2019-05-12T00:16:15.181Z,9.00
2019-05-12T00:21:17.723Z,8.90
2019-05-12T00:26:19.289Z,9.00
2019-05-12T00:31:20.886Z,8.80
2019-05-12T00:36:22.400Z,8.80
2019-05-12T00:41:23.990Z,8.90
2019-05-12T00:46:27.357Z,8.90
2019-05-12T00:51:29.099Z,8.80
2019-05-12T00:56:30.671Z,8.80
2019-05-12T01:01:32.253Z,8.80
2019-05-12T01:06:33.787Z,8.80
2019-05-12T01:11:37.767Z,8.80
2019-05-12T01:16:39.018Z,8.70
2019-05-12T01:21:40.508Z,8.70
2019-05-12T01:26:42.039Z,8.60
2019-05-12T01:31:45.451Z,8.60
2019-05-12T01:36:48.356Z,8.60
2019-05-12T01:41:50.049Z,8.60
2019-05-12T01:46:51.522Z,8.60
2019-05-12T01:51:53.101Z,8.60
2019-05-12T01:56:54.647Z,8.70
2019-05-12T02:01:58.117Z,8.70
2019-05-12T02:07:01.448Z,8.60
2019-05-12T02:12:03.363Z,8.60
2019-05-12T02:17:04.928Z,8.60
2019-05-12T02:22:08.464Z,8.60
2019-05-12T02:27:10.564Z,8.50
2019-05-12T02:32:12.063Z,8.50
2019-05-12T02:37:15.363Z,8.60
2019-05-12T02:42:17.163Z,8.50
2019-05-12T02:47:18.682Z,8.60
2019-05-12T02:52:24.851Z,8.60
2019-05-12T02:57:28.910Z,8.70
2019-05-12T03:02:34.838Z,8.60
2019-05-12T03:07:36.525Z,8.60
2019-05-12T03:12:38.102Z,8.50
2019-05-12T03:17:39.731Z,8.50
2019-05-12T03:22:44.536Z,8.50
2019-05-12T03:27:44.840Z,8.50
2019-05-12T03:32:47.792Z,8.50
2019-05-12T03:37:49.694Z,8.50
2019-05-12T03:42:51.188Z,8.50
2019-05-12T03:47:54.805Z,8.50
2019-05-12T03:52:56.744Z,8.50
2019-05-12T03:57:58.524Z,8.40
2019-05-12T04:03:00.121Z,8.50
2019-05-12T04:08:05.110Z,8.50
2019-05-12T04:13:05.572Z,8.60
2019-05-12T04:18:07.400Z,8.50
2019-05-12T04:23:08.976Z,8.60
2019-05-12T04:28:10.466Z,8.70
2019-05-12T04:33:15.125Z,8.70
2019-05-12T04:38:15.527Z,8.80
2019-05-12T04:43:17.084Z,8.70
2019-05-12T04:48:21.464Z,8.90
2019-05-12T04:53:25.063Z,9.00
2019-05-12T04:58:25.723Z,9.00
2019-05-12T05:03:27.361Z,8.90
2019-05-12T05:08:28.995Z,9.00
2019-05-12T05:13:30.508Z,9.00
2019-05-12T05:18:34.299Z,9.00
2019-05-12T05:23:35.462Z,9.10
2019-05-12T05:28:36.950Z,9.10
2019-05-12T05:33:39.025Z,9.10
2019-05-12T05:38:40.552Z,9.20
2019-05-12T05:43:43.778Z,9.30
2019-05-12T05:48:45.436Z,9.30
2019-05-12T05:53:49.796Z,9.30
2019-05-12T05:58:52.430Z,9.30
2019-05-12T06:03:58.401Z,9.50
2019-05-12T06:08:58.844Z,9.40
2019-05-12T06:14:03.108Z,9.40
2019-05-12T06:19:03.912Z,9.30
2019-05-12T06:24:08.769Z,9.30
2019-05-12T06:29:11.362Z,9.50
2019-05-12T06:34:15.197Z,9.70
2019-05-12T06:39:20.493Z,9.70
2019-05-12T06:44:19.797Z,9.90
2019-05-12T06:49:21.389Z,10.00
2019-05-12T06:54:24.765Z,9.80
2019-05-12T06:59:26.629Z,9.80
2019-05-12T07:04:28.128Z,10.00
2019-05-12T07:09:32.518Z,9.90
2019-05-12T07:14:34.583Z,9.70
2019-05-12T07:19:36.378Z,9.70
2019-05-12T07:24:40.865Z,10.00
2019-05-12T07:29:43.472Z,10.20
2019-05-12T07:34:44.980Z,10.50
2019-05-12T07:39:49.473Z,10.90
2019-05-12T07:44:54.719Z,10.60
2019-05-12T07:49:57.607Z,10.50
2019-05-12T07:54:59.188Z,10.70
2019-05-12T08:00:03.079Z,10.70
2019-05-12T08:05:11.037Z,10.90
2019-05-12T08:10:20.053Z,10.90
2019-05-12T08:15:16.779Z,11.00
2019-05-12T08:20:18.263Z,11.30
2019-05-12T08:25:27.065Z,11.40
2019-05-12T08:30:33.998Z,11.50
2019-05-12T08:35:38.303Z,11.60
2019-05-12T08:40:45.265Z,11.90
2019-05-12T08:45:44.410Z,12.00
2019-05-12T08:50:46.341Z,12.10
2019-05-12T08:55:48.531Z,12.40
2019-05-12T09:00:50.684Z,12.20
2019-05-12T09:05:53.664Z,12.30
2019-05-12T09:10:55.740Z,12.30
2019-05-12T09:15:57.363Z,12.80
2019-05-12T09:20:58.863Z,12.80
2019-05-12T09:26:00.674Z,12.80
2019-05-12T09:31:03.696Z,12.90
2019-05-12T09:36:05.731Z,13.00
2019-05-12T09:41:07.221Z,13.00
2019-05-12T09:46:08.758Z,13.40
2019-05-12T09:51:10.265Z,13.70
2019-05-12T09:56:13.720Z,14.10
2019-05-12T10:01:15.599Z,14.20
2019-05-12T10:06:21.110Z,14.60
2019-05-12T10:11:21.047Z,14.60
2019-05-12T10:16:24.060Z,14.80
2019-05-12T10:21:25.843Z,14.70
2019-05-12T10:26:27.394Z,15.10
2019-05-12T10:31:29.710Z,15.50
2019-05-12T10:36:33.820Z,15.10
2019-05-12T10:41:35.296Z,15.10
2019-05-12T10:46:36.899Z,15.70
2019-05-12T10:51:39.016Z,16.00
2019-05-12T10:56:43.676Z,15.70
2019-05-12T11:01:48.850Z,15.60
2019-05-12T11:06:48.637Z,16.70
2019-05-12T11:11:53.711Z,16.40
2019-05-12T11:16:55.622Z,16.40
2019-05-12T11:21:57.293Z,16.80
2019-05-12T11:26:59.196Z,16.90
2019-05-12T11:32:00.940Z,16.80
2019-05-12T11:37:03.440Z,16.80
2019-05-12T11:42:05.279Z,17.50
2019-05-12T11:47:07.239Z,17.10
2019-05-12T11:52:15.410Z,17.70
2019-05-12T11:57:13.608Z,17.30
2019-05-12T12:02:20.116Z,18.30
2019-05-12T12:07:18.888Z,17.50
2019-05-12T12:12:20.575Z,17.90
2019-05-12T12:17:30.833Z,17.40
2019-05-12T12:22:29.678Z,18.00
2019-05-12T12:27:29.273Z,17.90
2019-05-12T12:32:30.967Z,18.30
2019-05-12T12:37:33.189Z,18.10
2019-05-12T12:42:38.548Z,18.00
2019-05-12T12:47:44.397Z,18.50
2019-05-12T12:52:44.897Z,18.40
2019-05-12T12:57:50.607Z,18.30
2019-05-12T13:02:49.489Z,18.30
2019-05-12T13:07:52.965Z,18.50
2019-05-12T13:12:56.514Z,18.80
2019-05-12T13:17:58.105Z,18.30
2019-05-12T13:22:59.603Z,18.40
2019-05-12T13:28:06.404Z,18.60
2019-05-12T13:33:08.776Z,19.40
2019-05-12T13:38:08.251Z,19.70
2019-05-12T13:43:15.682Z,19.00
2019-05-12T13:48:15.781Z,18.80
2019-05-12T13:53:16.809Z,18.90
2019-05-12T13:58:18.426Z,17.80
2019-05-12T14:03:21.431Z,18.30
2019-05-12T14:08:23.885Z,19.20
2019-05-12T14:13:25.550Z,18.70
2019-05-12T14:18:28.326Z,18.20
2019-05-12T14:23:29.834Z,18.80
2019-05-12T14:28:33.547Z,18.80
2019-05-12T14:33:38.988Z,18.70
2019-05-12T14:38:38.468Z,18.90
2019-05-12T14:43:40.271Z,18.10
2019-05-12T14:48:48.467Z,17.80
2019-05-12T14:53:48.009Z,18.70
2019-05-12T14:58:50.176Z,18.90
2019-05-12T15:03:53.545Z,18.30
2019-05-12T15:08:55.295Z,17.20
2019-05-12T15:13:56.996Z,17.40
2019-05-12T15:18:58.597Z,16.70
2019-05-12T15:24:00.513Z,16.60
2019-05-12T15:29:05.374Z,16.40
2019-05-12T15:34:09.362Z,16.20
2019-05-12T15:39:11.119Z,17.40
2019-05-12T15:44:14.610Z,17.80
2019-05-12T15:49:16.117Z,18.00
2019-05-12T15:54:17.627Z,18.10
2019-05-12T15:59:19.356Z,18.50
2019-05-12T16:04:20.851Z,18.80
2019-05-12T16:09:23.796Z,18.40
2019-05-12T16:14:30.392Z,18.30
2019-05-12T16:19:29.779Z,17.70
2019-05-12T16:24:31.263Z,17.80
2019-05-12T16:29:33.985Z,17.10
2019-05-12T16:34:44.146Z,16.60
2019-05-12T16:39:46.637Z,16.50
2019-05-12T16:44:44.011Z,16.70
2019-05-12T16:49:45.785Z,16.60
2019-05-12T16:54:47.287Z,16.40
2019-05-12T16:59:53.408Z,16.40
2019-05-12T17:04:54.021Z,16.20
2019-05-12T17:09:55.704Z,15.50
2019-05-12T17:14:59.723Z,15.00
2019-05-12T17:20:00.721Z,14.80
2019-05-12T17:25:06.093Z,14.70
2019-05-12T17:30:08.750Z,14.50
2019-05-12T17:35:10.963Z,14.30
2019-05-12T17:40:20.110Z,14.40
2019-05-12T17:45:20.423Z,14.30
2019-05-12T17:50:20.649Z,14.00
2019-05-12T17:55:22.542Z,13.90
2019-05-12T18:00:25.193Z,13.80
2019-05-12T18:05:27.014Z,13.80
2019-05-12T18:10:32.697Z,13.60
2019-05-12T18:15:37.535Z,13.60
2019-05-12T18:20:39.947Z,13.80
2019-05-12T18:25:39.092Z,13.40
2019-05-12T18:30:40.603Z,13.20
2019-05-12T18:35:43.964Z,13.10
2019-05-12T18:40:45.685Z,12.90
2019-05-12T18:45:48.832Z,12.90
2019-05-12T18:50:51.088Z,12.70
2019-05-12T18:55:53.940Z,12.60
2019-05-12T19:00:55.936Z,12.50
2019-05-12T19:05:58.288Z,12.30
2019-05-12T19:11:00.095Z,12.10
2019-05-12T19:16:06.710Z,12.10
2019-05-12T19:21:10.091Z,11.80
2019-05-12T19:26:09.043Z,11.70
2019-05-12T19:31:10.543Z,11.50
2019-05-12T19:36:13.636Z,11.50
2019-05-12T19:41:15.557Z,11.20
2019-05-12T19:46:17.374Z,11.20
2019-05-12T19:51:24.416Z,11.20
2019-05-12T19:56:23.873Z,11.00
2019-05-12T20:01:32.267Z,11.00
2019-05-12T20:06:29.587Z,10.90
2019-05-12T20:11:31.625Z,10.90
2019-05-12T20:16:34.638Z,10.90
2019-05-12T20:21:36.644Z,10.70
2019-05-12T20:26:38.702Z,10.60
2019-05-12T20:31:44.571Z,10.30
2019-05-12T20:36:45.002Z,10.40
2019-05-12T20:41:47.236Z,10.20
2019-05-12T20:46:49.214Z,10.00
2019-05-12T20:51:54.906Z,9.90
2019-05-12T20:57:02.241Z,9.70
2019-05-12T21:01:58.090Z,9.50
2019-05-12T21:06:59.800Z,9.40
2019-05-12T21:12:01.654Z,9.30
2019-05-12T21:17:08.853Z,9.20
2019-05-12T21:22:07.083Z,8.90
2019-05-12T21:27:09.515Z,8.80
2019-05-12T21:32:18.969Z,8.80
2019-05-12T21:37:20.678Z,8.70
2019-05-12T21:42:24.893Z,8.50
2019-05-12T21:47:25.876Z,8.30
2019-05-12T21:52:27.693Z,8.10
2019-05-12T21:57:31.150Z,8.00
2019-05-12T22:02:34.121Z,7.90
2019-05-12T22:07:39.814Z,7.90
2019-05-12T22:12:39.923Z,7.70
2019-05-12T22:18:00.619Z,7.60
2019-05-12T22:23:08.442Z,7.50
2019-05-12T22:28:09.994Z,7.40
2019-05-12T22:33:11.061Z,7.30
2019-05-12T22:38:19.000Z,7.30
2019-05-12T22:43:16.679Z,7.10
2019-05-12T22:48:18.279Z,7.10
2019-05-12T22:53:25.939Z,6.90
2019-05-12T22:58:25.443Z,6.80
2019-05-12T23:03:26.880Z,6.70
2019-05-12T23:08:28.471Z,6.60
2019-05-12T23:13:32.237Z,6.50
2019-05-12T23:18:33.878Z,6.30
2019-05-12T23:23:35.433Z,6.30
2019-05-12T23:28:40.588Z,6.20
2019-05-12T23:33:40.640Z,6.00
2019-05-12T23:38:44.037Z,5.90
2019-05-12T23:43:45.780Z,5.70
2019-05-12T23:48:47.279Z,5.70
2019-05-12T23:53:48.928Z,5.50
2019-05-12T23:58:50.433Z,5.40
